Time;durP1;ratioP1;P1;durP2;ratioP2;P2;SDS_P1;SDS_P2;PMS_P1;PMS_P2;Temp;Humidity;BMP_temperature;BMP_pressure;BME280_temperature;BME280_humidity;BME280_pressure;Samples;Min_cycle;Max_cycle;Signal;HPM_P1;HPM_P2
2021/09/07 00:00:45;;;;;;;14.23;12.73;;;;;;;;;;2081757;28;20198;-56
2021/09/07 00:01:45;;;;;;;16.45;12.43;;;;;;;;;;2079081;28;20607;-55
2021/09/07 00:02:45;;;;;;;13.57;11.52;;;;;;;;;;2088586;28;20183;-54
2021/09/07 00:03:48;;;;;;;14.00;12.05;;;;;;;;;;2084622;28;20179;-51
2021/09/07 00:04:49;;;;;;;15.00;11.75;;;;;;;;;;2076322;28;20199;-53
2021/09/07 00:05:49;;;;;;;14.02;12.48;;;;;;;;;;2072979;28;20207;-52
2021/09/07 00:06:49;;;;;;;13.40;12.07;;;;;;;;;;2084585;28;20377;-54
2021/09/07 00:07:49;;;;;;;14.85;11.85;;;;;;;;;;2088548;28;20187;-54
2021/09/07 00:08:50;;;;;;;13.23;11.93;;;;;;;;;;2086954;28;20203;-54
2021/09/07 00:09:52;;;;;;;14.95;12.27;;;;;;;;;;2088382;28;20187;-57
2021/09/07 00:10:54;;;;;;;14.38;12.32;;;;;;;;;;2081621;28;20167;-56
2021/09/07 00:11:55;;;;;;;14.35;12.00;;;;;;;;;;2082524;28;20160;-55
2021/09/07 00:12:56;;;;;;;14.25;12.40;;;;;;;;;;2088535;28;20258;-53
2021/09/07 00:13:58;;;;;;;13.55;12.07;;;;;;;;;;2087229;28;20562;-49
2021/09/07 00:14:58;;;;;;;15.85;12.68;;;;;;;;;;2088539;28;20156;-53
2021/09/07 00:15:59;;;;;;;15.13;12.68;;;;;;;;;;2087470;28;20189;-54
2021/09/07 00:17:01;;;;;;;14.52;13.05;;;;;;;;;;2085699;28;20190;-56
2021/09/07 00:18:02;;;;;;;13.98;12.00;;;;;;;;;;2085044;28;20177;-52
2021/09/07 00:19:02;;;;;;;12.70;11.50;;;;;;;;;;2090392;28;20588;-56
2021/09/07 00:20:03;;;;;;;16.13;11.95;;;;;;;;;;2089176;28;20567;-53
2021/09/07 00:21:03;;;;;;;13.75;12.00;;;;;;;;;;2088275;28;20179;-52
2021/09/07 00:22:03;;;;;;;16.65;11.55;;;;;;;;;;2088425;28;20542;-50
2021/09/07 00:23:04;;;;;;;12.65;11.45;;;;;;;;;;2088597;28;20258;-56
2021/09/07 00:24:04;;;;;;;14.00;11.90;;;;;;;;;;2079705;28;20251;-54
2021/09/07 00:25:05;;;;;;;13.10;11.50;;;;;;;;;;2071796;28;20165;-55
2021/09/07 00:26:05;;;;;;;16.00;12.35;;;;;;;;;;2080459;28;20164;-51
2021/09/07 00:27:06;;;;;;;12.93;11.63;;;;;;;;;;2086467;28;20184;-54
2021/09/07 00:28:06;;;;;;;13.57;11.93;;;;;;;;;;2087392;28;20242;-52
2021/09/07 00:29:07;;;;;;;13.88;12.05;;;;;;;;;;2085854;28;20368;-55
2021/09/07 00:30:07;;;;;;;13.18;11.55;;;;;;;;;;2088645;28;20731;-57
2021/09/07 00:31:07;;;;;;;13.48;12.07;;;;;;;;;;2088665;28;20170;-58
2021/09/07 00:32:08;;;;;;;19.05;12.85;;;;;;;;;;2087380;28;20180;-58
2021/09/07 00:33:08;;;;;;;16.08;13.27;;;;;;;;;;2088881;28;20164;-56
2021/09/07 00:34:08;;;;;;;15.85;12.65;;;;;;;;;;2088152;28;20191;-57
2021/09/07 00:35:11;;;;;;;15.75;13.60;;;;;;;;;;2085034;28;20176;-56
2021/09/07 00:36:11;;;;;;;15.90;13.50;;;;;;;;;;2082976;28;20191;-56
2021/09/07 00:37:12;;;;;;;16.75;12.88;;;;;;;;;;2088990;28;20218;-55
2021/09/07 00:38:12;;;;;;;17.40;13.63;;;;;;;;;;2086352;28;20253;-57
2021/09/07 00:39:13;;;;;;;16.30;13.73;;;;;;;;;;2088523;28;20251;-59
2021/09/07 00:40:13;;;;;;;16.15;13.85;;;;;;;;;;2088801;28;20214;-53
2021/09/07 00:41:13;;;;;;;16.73;13.07;;;;;;;;;;2096149;28;20194;-58
2021/09/07 00:42:14;;;;;;;16.40;13.63;;;;;;;;;;2091339;28;20171;-56
2021/09/07 00:43:14;;;;;;;13.82;12.43;;;;;;;;;;2086647;28;20201;-55
2021/09/07 00:44:16;;;;;;;16.08;13.00;;;;;;;;;;2086009;28;20255;-56
2021/09/07 00:45:16;;;;;;;17.67;14.52;;;;;;;;;;2084007;28;20636;-57
2021/09/07 00:46:16;;;;;;;15.18;13.57;;;;;;;;;;2081523;28;20184;-55
2021/09/07 00:47:16;;;;;;;15.75;12.88;;;;;;;;;;2090102;28;20172;-55
2021/09/07 00:48:17;;;;;;;17.95;13.68;;;;;;;;;;2089750;28;20222;-55
2021/09/07 00:49:17;;;;;;;16.80;14.13;;;;;;;;;;2090006;28;20282;-53
2021/09/07 00:50:18;;;;;;;15.93;13.73;;;;;;;;;;2088889;28;20215;-56
2021/09/07 00:51:20;;;;;;;18.88;13.40;;;;;;;;;;2090006;28;20221;-57
2021/09/07 00:52:21;;;;;;;18.13;13.93;;;;;;;;;;2085259;28;20614;-54
2021/09/07 00:53:21;;;;;;;17.80;13.88;;;;;;;;;;2088767;28;20176;-53
2021/09/07 00:54:26;;;;;;;16.90;14.68;;;;;;;;;;2089952;28;20520;-54
2021/09/07 00:55:26;;;;;;;16.10;14.30;;;;;;;;;;2089968;28;20168;-55
2021/09/07 00:56:26;;;;;;;15.27;13.18;;;;;;;;;;2084721;28;20234;-54
2021/09/07 00:57:27;;;;;;;16.13;12.70;;;;;;;;;;2089468;28;20183;-55
2021/09/07 00:58:29;;;;;;;15.20;13.60;;;;;;;;;;2089337;28;20187;-52
2021/09/07 00:59:30;;;;;;;17.50;13.65;;;;;;;;;;2090847;28;20255;-55
2021/09/07 01:00:32;;;;;;;16.73;12.98;;;;;;;;;;2089234;28;20183;-54
2021/09/07 01:01:34;;;;;;;15.57;12.93;;;;;;;;;;2088984;28;20206;-56
2021/09/07 01:02:34;;;;;;;13.93;12.35;;;;;;;;;;2073508;28;20635;-54
2021/09/07 01:03:35;;;;;;;14.75;12.50;;;;;;;;;;2077926;28;20633;-56
2021/09/07 01:04:36;;;;;;;14.70;12.95;;;;;;;;;;2090828;28;20267;-54
2021/09/07 01:05:41;;;;;;;18.10;13.68;;;;;;;;;;2085572;28;20176;-55
2021/09/07 01:06:45;;;;;;;17.33;14.05;;;;;;;;;;2090110;28;20176;-53
2021/09/07 01:07:47;;;;;;;14.77;13.23;;;;;;;;;;2089575;28;20171;-53
2021/09/07 01:08:48;;;;;;;17.27;14.20;;;;;;;;;;2088243;28;20206;-58
2021/09/07 01:09:49;;;;;;;18.10;13.75;;;;;;;;;;2088004;28;20219;-55
2021/09/07 01:10:50;;;;;;;17.15;14.38;;;;;;;;;;2085772;28;20648;-52
2021/09/07 01:11:52;;;;;;;16.13;14.10;;;;;;;;;;2085575;28;20447;-53
2021/09/07 01:12:53;;;;;;;16.33;13.98;;;;;;;;;;2088049;28;20194;-55
2021/09/07 01:13:54;;;;;;;17.33;13.88;;;;;;;;;;2080119;28;20614;-55
2021/09/07 01:14:56;;;;;;;16.70;14.40;;;;;;;;;;2090684;28;20160;-57
2021/09/07 01:15:59;;;;;;;16.83;13.90;;;;;;;;;;2090883;28;20232;-52
2021/09/07 01:17:00;;;;;;;19.30;13.65;;;;;;;;;;2090404;28;20171;-57
2021/09/07 01:18:03;;;;;;;15.13;13.55;;;;;;;;;;2089825;28;20228;-53
2021/09/07 01:19:05;;;;;;;18.45;13.75;;;;;;;;;;2090647;28;20229;-55
2021/09/07 01:20:06;;;;;;;15.32;13.68;;;;;;;;;;2089964;28;20250;-55
2021/09/07 01:21:13;;;;;;;16.20;14.20;;;;;;;;;;2087259;28;20192;-51
2021/09/07 01:22:16;;;;;;;14.35;12.85;;;;;;;;;;2088250;28;20177;-54
2021/09/07 01:23:16;;;;;;;15.00;12.95;;;;;;;;;;2090782;28;20214;-54
2021/09/07 01:24:21;;;;;;;18.15;13.07;;;;;;;;;;2090215;28;20541;-56
2021/09/07 01:25:21;;;;;;;14.93;13.23;;;;;;;;;;2084171;28;20172;-51
2021/09/07 01:26:22;;;;;;;15.25;13.65;;;;;;;;;;2090021;28;20195;-55
2021/09/07 01:27:22;;;;;;;15.43;13.05;;;;;;;;;;2090032;28;20255;-53
2021/09/07 01:28:24;;;;;;;15.00;13.30;;;;;;;;;;2088840;28;20234;-54
2021/09/07 01:29:24;;;;;;;14.23;12.70;;;;;;;;;;2090371;28;20254;-56
2021/09/07 01:30:26;;;;;;;16.67;13.38;;;;;;;;;;2089163;28;20164;-52
2021/09/07 01:31:26;;;;;;;17.15;14.32;;;;;;;;;;2089851;28;20179;-56
2021/09/07 01:32:28;;;;;;;15.10;13.60;;;;;;;;;;2087589;28;20207;-55
2021/09/07 01:33:29;;;;;;;16.38;13.68;;;;;;;;;;2089472;28;20176;-56
2021/09/07 01:34:29;;;;;;;17.63;14.05;;;;;;;;;;2089353;28;20182;-55
2021/09/07 01:35:29;;;;;;;16.92;14.55;;;;;;;;;;2089851;28;20601;-57
2021/09/07 01:36:30;;;;;;;19.20;14.55;;;;;;;;;;2083522;28;20195;-57
2021/09/07 01:37:30;;;;;;;15.77;13.95;;;;;;;;;;2080738;28;20775;-55
2021/09/07 01:38:31;;;;;;;17.85;14.32;;;;;;;;;;2085835;28;20183;-59
2021/09/07 01:39:31;;;;;;;18.33;14.88;;;;;;;;;;2090219;28;20245;-58
2021/09/07 01:40:31;;;;;;;16.13;13.57;;;;;;;;;;2089697;28;20246;-57
2021/09/07 01:41:32;;;;;;;20.08;14.75;;;;;;;;;;2085447;28;20160;-57
2021/09/07 01:42:32;;;;;;;16.13;14.32;;;;;;;;;;2089718;28;20194;-58
2021/09/07 01:43:32;;;;;;;18.15;14.35;;;;;;;;;;2088190;28;20176;-56
2021/09/07 01:44:33;;;;;;;16.83;14.27;;;;;;;;;;2089664;28;20160;-57
2021/09/07 01:45:33;;;;;;;17.42;13.55;;;;;;;;;;2089394;28;20171;-56
2021/09/07 01:46:33;;;;;;;17.30;13.40;;;;;;;;;;2089509;28;20305;-53
2021/09/07 01:47:34;;;;;;;14.05;12.65;;;;;;;;;;2087036;28;20167;-58
2021/09/07 01:48:34;;;;;;;15.55;14.02;;;;;;;;;;2089401;28;20593;-57
2021/09/07 01:50:42;;;;;;;14.95;13.35;;;;;;;;;;2073718;28;20338;-60
2021/09/07 01:51:43;;;;;;;16.55;13.60;;;;;;;;;;2079741;28;20179;-58
2021/09/07 01:52:44;;;;;;;16.40;13.52;;;;;;;;;;2080957;28;20551;-59
2021/09/07 01:53:44;;;;;;;15.23;13.32;;;;;;;;;;2081590;28;20164;-59
2021/09/07 01:54:47;;;;;;;15.82;14.07;;;;;;;;;;2080596;28;20539;-60
2021/09/07 01:55:48;;;;;;;15.45;13.27;;;;;;;;;;2070249;28;20201;-56
2021/09/07 01:56:49;;;;;;;15.88;13.70;;;;;;;;;;2070003;28;20180;-59
2021/09/07 01:57:51;;;;;;;15.73;13.30;;;;;;;;;;2073195;28;20197;-59
2021/09/07 01:58:51;;;;;;;16.58;14.05;;;;;;;;;;2080535;28;20180;-59
2021/09/07 01:59:53;;;;;;;15.95;13.25;;;;;;;;;;2073812;28;20211;-60
2021/09/07 02:00:55;;;;;;;15.95;13.88;;;;;;;;;;2067886;28;20561;-59
2021/09/07 02:01:56;;;;;;;14.50;13.00;;;;;;;;;;2071081;28;20183;-59
2021/09/07 02:02:56;;;;;;;14.93;13.32;;;;;;;;;;2081292;28;20218;-59
2021/09/07 02:03:57;;;;;;;15.35;13.23;;;;;;;;;;2079804;28;20222;-60
2021/09/07 02:04:57;;;;;;;17.63;14.32;;;;;;;;;;2076736;28;20629;-60
2021/09/07 02:05:58;;;;;;;16.95;13.23;;;;;;;;;;2081190;28;20183;-60
2021/09/07 02:06:59;;;;;;;16.38;13.52;;;;;;;;;;2078457;28;20318;-60
2021/09/07 02:08:00;;;;;;;15.70;13.70;;;;;;;;;;2075803;28;20169;-61
2021/09/07 02:09:00;;;;;;;15.73;14.02;;;;;;;;;;2076710;28;20303;-60
2021/09/07 02:10:02;;;;;;;16.15;13.68;;;;;;;;;;2068453;28;20240;-60
2021/09/07 02:11:03;;;;;;;19.30;14.57;;;;;;;;;;2072521;28;20177;-59
2021/09/07 02:12:03;;;;;;;15.45;13.85;;;;;;;;;;2081075;28;20172;-60
2021/09/07 02:13:04;;;;;;;17.05;13.73;;;;;;;;;;2076824;28;20243;-60
2021/09/07 02:14:05;;;;;;;17.40;14.68;;;;;;;;;;2077745;28;20156;-61
2021/09/07 02:15:08;;;;;;;16.75;14.95;;;;;;;;;;2081158;28;20180;-59
2021/09/07 02:16:09;;;;;;;15.27;13.68;;;;;;;;;;2081169;28;20628;-56
2021/09/07 02:17:09;;;;;;;17.13;14.07;;;;;;;;;;2079092;28;20233;-60
2021/09/07 02:18:10;;;;;;;13.95;12.50;;;;;;;;;;2080860;28;20196;-61
2021/09/07 02:19:11;;;;;;;15.15;13.02;;;;;;;;;;2079273;28;20254;-60
2021/09/07 02:20:12;;;;;;;17.10;13.70;;;;;;;;;;2070202;28;20279;-59
2021/09/07 02:21:13;;;;;;;15.88;12.95;;;;;;;;;;2072416;28;20660;-55
2021/09/07 02:22:18;;;;;;;14.73;13.18;;;;;;;;;;2073753;28;20255;-57
2021/09/07 02:23:18;;;;;;;14.82;12.48;;;;;;;;;;2080646;28;20179;-58
2021/09/07 02:24:19;;;;;;;14.80;12.55;;;;;;;;;;2078266;28;20683;-57
2021/09/07 02:25:21;;;;;;;14.25;12.20;;;;;;;;;;2070759;28;20172;-59
2021/09/07 02:26:22;;;;;;;14.02;12.52;;;;;;;;;;2071853;28;20173;-59
2021/09/07 02:27:23;;;;;;;14.13;12.43;;;;;;;;;;2078296;28;20176;-58
2021/09/07 02:28:24;;;;;;;12.95;11.65;;;;;;;;;;2071067;28;20189;-59
2021/09/07 02:29:27;;;;;;;15.57;12.73;;;;;;;;;;2072219;28;20275;-59
2021/09/07 02:30:29;;;;;;;14.52;11.55;;;;;;;;;;2080755;28;20281;-56
2021/09/07 02:31:30;;;;;;;13.30;11.70;;;;;;;;;;2070205;28;20172;-58
2021/09/07 02:32:31;;;;;;;13.02;11.32;;;;;;;;;;2064373;28;20268;-58
2021/09/07 02:33:31;;;;;;;14.93;11.43;;;;;;;;;;2081179;28;20640;-58
2021/09/07 02:34:34;;;;;;;14.65;11.38;;;;;;;;;;2080153;28;20164;-58
2021/09/07 02:35:35;;;;;;;13.90;11.38;;;;;;;;;;2076601;28;20565;-59
2021/09/07 02:36:37;;;;;;;12.88;11.48;;;;;;;;;;2066122;28;20614;-59
2021/09/07 02:37:38;;;;;;;16.08;12.20;;;;;;;;;;2068915;28;20170;-60
2021/09/07 02:38:38;;;;;;;15.52;12.05;;;;;;;;;;2072362;28;20853;-60
2021/09/07 02:39:41;;;;;;;14.60;12.02;;;;;;;;;;2069451;28;20184;-60
2021/09/07 02:40:41;;;;;;;13.98;12.38;;;;;;;;;;2067336;28;20193;-60
2021/09/07 02:41:41;;;;;;;12.50;11.13;;;;;;;;;;2064301;28;20181;-60
2021/09/07 02:42:42;;;;;;;14.35;11.98;;;;;;;;;;2063074;28;20256;-60
2021/09/07 02:43:43;;;;;;;14.23;12.15;;;;;;;;;;2064386;28;20197;-60
2021/09/07 02:44:44;;;;;;;12.05;10.75;;;;;;;;;;2068172;28;20178;-59
2021/09/07 02:45:44;;;;;;;14.63;11.15;;;;;;;;;;2079297;28;20187;-60
2021/09/07 02:46:46;;;;;;;12.70;11.38;;;;;;;;;;2072014;28;20212;-58
2021/09/07 02:47:47;;;;;;;14.20;11.80;;;;;;;;;;2072159;28;20177;-60
2021/09/07 02:48:48;;;;;;;15.23;11.63;;;;;;;;;;2066139;28;20281;-61
2021/09/07 02:49:49;;;;;;;13.57;11.15;;;;;;;;;;2067736;28;20729;-59
2021/09/07 02:50:49;;;;;;;12.45;11.13;;;;;;;;;;2075602;28;20239;-57
2021/09/07 02:51:50;;;;;;;14.18;11.07;;;;;;;;;;2060026;28;20192;-60
2021/09/07 02:52:51;;;;;;;13.68;12.23;;;;;;;;;;2069419;28;20247;-54
2021/09/07 02:53:51;;;;;;;12.32;11.02;;;;;;;;;;2080479;28;20176;-58
2021/09/07 02:54:52;;;;;;;12.20;10.98;;;;;;;;;;2080469;28;20172;-60
2021/09/07 02:55:53;;;;;;;16.10;12.15;;;;;;;;;;2081279;28;20180;-58
2021/09/07 02:56:54;;;;;;;13.95;12.07;;;;;;;;;;2069837;28;20550;-59
2021/09/07 02:57:55;;;;;;;13.27;11.15;;;;;;;;;;2070944;28;20165;-55
2021/09/07 02:58:57;;;;;;;12.30;10.93;;;;;;;;;;2078390;28;20179;-56
2021/09/07 02:59:58;;;;;;;15.15;11.82;;;;;;;;;;2080045;28;20567;-58
2021/09/07 03:00:58;;;;;;;14.35;12.27;;;;;;;;;;2081378;28;20172;-59
2021/09/07 03:01:59;;;;;;;12.10;10.95;;;;;;;;;;2076820;28;20227;-57
2021/09/07 03:02:59;;;;;;;12.80;11.50;;;;;;;;;;2069287;28;20189;-58
2021/09/07 03:03:59;;;;;;;14.90;11.35;;;;;;;;;;2057164;28;20174;-56
2021/09/07 03:05:00;;;;;;;15.93;11.60;;;;;;;;;;2071194;28;20230;-54
2021/09/07 03:06:01;;;;;;;12.40;11.15;;;;;;;;;;2082028;28;20184;-56
2021/09/07 03:07:01;;;;;;;14.82;12.00;;;;;;;;;;2079141;28;20176;-58
2021/09/07 03:08:01;;;;;;;13.60;11.65;;;;;;;;;;2081117;28;20172;-60
2021/09/07 03:09:02;;;;;;;13.13;11.55;;;;;;;;;;2081525;28;20679;-58
2021/09/07 03:10:03;;;;;;;14.05;11.73;;;;;;;;;;2073693;28;20196;-55
2021/09/07 03:11:03;;;;;;;13.30;11.90;;;;;;;;;;2064978;28;20260;-56
2021/09/07 03:12:04;;;;;;;13.38;11.10;;;;;;;;;;2059105;28;20221;-56
2021/09/07 03:13:05;;;;;;;12.88;11.50;;;;;;;;;;2067101;28;20170;-55
2021/09/07 03:14:05;;;;;;;12.52;10.98;;;;;;;;;;2075101;28;20646;-57
2021/09/07 03:15:06;;;;;;;13.10;11.70;;;;;;;;;;2073536;28;20169;-59
2021/09/07 03:16:07;;;;;;;13.85;12.20;;;;;;;;;;2067131;28;20260;-59
2021/09/07 03:17:07;;;;;;;13.35;11.13;;;;;;;;;;2072513;28;20268;-58
2021/09/07 03:18:09;;;;;;;13.70;11.80;;;;;;;;;;2072890;28;20660;-59
2021/09/07 03:19:11;;;;;;;13.07;11.02;;;;;;;;;;2072756;28;20184;-58
2021/09/07 03:20:12;;;;;;;14.73;11.80;;;;;;;;;;2072283;28;20216;-59
2021/09/07 03:21:13;;;;;;;17.88;13.65;;;;;;;;;;2078367;28;20719;-59
2021/09/07 03:22:13;;;;;;;16.08;13.60;;;;;;;;;;2087537;28;20297;-59
2021/09/07 03:23:14;;;;;;;16.52;12.98;;;;;;;;;;2089679;28;20167;-59
2021/09/07 03:24:14;;;;;;;15.43;12.70;;;;;;;;;;2089928;28;20596;-59
2021/09/07 03:25:15;;;;;;;14.77;12.63;;;;;;;;;;2089750;28;20176;-59
2021/09/07 03:26:17;;;;;;;17.67;12.75;;;;;;;;;;2088389;28;20177;-59
2021/09/07 03:27:18;;;;;;;13.80;12.07;;;;;;;;;;2080398;28;20176;-58
2021/09/07 03:28:19;;;;;;;14.50;13.00;;;;;;;;;;2081073;28;20664;-58
2021/09/07 03:29:20;;;;;;;14.35;13.00;;;;;;;;;;2080384;28;20282;-59
2021/09/07 03:30:22;;;;;;;14.43;12.93;;;;;;;;;;2073311;28;20192;-58
2021/09/07 03:31:23;;;;;;;15.88;14.18;;;;;;;;;;2073168;28;20264;-57
2021/09/07 03:32:25;;;;;;;14.20;12.70;;;;;;;;;;2073394;28;20172;-59
2021/09/07 03:33:26;;;;;;;15.07;13.43;;;;;;;;;;2073169;28;20212;-59
2021/09/07 03:34:26;;;;;;;15.85;13.52;;;;;;;;;;2074629;28;20593;-58
2021/09/07 03:35:29;;;;;;;14.68;13.20;;;;;;;;;;2080653;28;20180;-58
2021/09/07 03:36:30;;;;;;;14.98;13.23;;;;;;;;;;2071307;28;20275;-58
2021/09/07 03:37:30;;;;;;;16.10;14.13;;;;;;;;;;2071833;28;20173;-59
2021/09/07 03:38:33;;;;;;;14.85;12.88;;;;;;;;;;2079987;28;20665;-60
2021/09/07 03:39:34;;;;;;;16.30;12.93;;;;;;;;;;2078124;28;20190;-59
2021/09/07 03:40:35;;;;;;;16.77;13.52;;;;;;;;;;2071870;28;20291;-60
2021/09/07 03:41:36;;;;;;;17.73;13.45;;;;;;;;;;2071445;28;20578;-58
2021/09/07 03:42:37;;;;;;;15.65;13.95;;;;;;;;;;2077462;28;20231;-58
2021/09/07 03:43:37;;;;;;;13.98;12.10;;;;;;;;;;2071687;28;20256;-58
2021/09/07 03:44:38;;;;;;;15.40;12.85;;;;;;;;;;2071587;28;20282;-58
2021/09/07 03:45:41;;;;;;;16.25;13.45;;;;;;;;;;2080365;28;20160;-60
2021/09/07 03:46:42;;;;;;;13.60;12.20;;;;;;;;;;2078034;28;20172;-54
2021/09/07 03:47:43;;;;;;;14.82;12.90;;;;;;;;;;2074307;28;20177;-57
2021/09/07 03:48:44;;;;;;;13.57;11.93;;;;;;;;;;2079025;28;20305;-58
2021/09/07 03:49:45;;;;;;;15.88;13.20;;;;;;;;;;2078789;28;20259;-57
2021/09/07 03:50:46;;;;;;;16.85;13.70;;;;;;;;;;2072065;28;20561;-56
2021/09/07 03:51:47;;;;;;;16.13;13.93;;;;;;;;;;2066713;28;20170;-58
2021/09/07 03:52:48;;;;;;;14.82;12.55;;;;;;;;;;2080534;28;20172;-59
2021/09/07 03:53:51;;;;;;;15.73;13.10;;;;;;;;;;2071736;28;20176;-59
2021/09/07 03:54:53;;;;;;;14.48;12.48;;;;;;;;;;2070171;28;20165;-60
2021/09/07 03:55:53;;;;;;;13.60;11.98;;;;;;;;;;2072390;28;20239;-59
2021/09/07 03:56:54;;;;;;;14.95;12.60;;;;;;;;;;2071008;28;20173;-57
2021/09/07 03:57:54;;;;;;;15.38;12.43;;;;;;;;;;2070647;28;20621;-59
2021/09/07 03:58:55;;;;;;;14.25;12.40;;;;;;;;;;2064445;28;20187;-60
2021/09/07 03:59:57;;;;;;;16.10;12.65;;;;;;;;;;2076363;28;20214;-60
2021/09/07 04:00:57;;;;;;;18.98;14.20;;;;;;;;;;2080250;28;20181;-57
2021/09/07 04:01:58;;;;;;;16.35;13.65;;;;;;;;;;2080538;28;20188;-56
2021/09/07 04:02:59;;;;;;;14.35;12.85;;;;;;;;;;2080777;28;20226;-58
2021/09/07 04:04:00;;;;;;;16.00;13.20;;;;;;;;;;2079420;28;20184;-57
2021/09/07 04:05:01;;;;;;;15.48;12.00;;;;;;;;;;2079684;28;20251;-56
2021/09/07 04:06:02;;;;;;;14.57;12.55;;;;;;;;;;2080398;28;20184;-57
2021/09/07 04:07:03;;;;;;;13.68;11.98;;;;;;;;;;2078681;28;20663;-58
2021/09/07 04:08:04;;;;;;;15.05;12.55;;;;;;;;;;2078461;28;20180;-55
2021/09/07 04:09:07;;;;;;;18.27;13.15;;;;;;;;;;2071293;28;20292;-56
2021/09/07 04:10:07;;;;;;;14.27;12.77;;;;;;;;;;2062440;28;20890;-59
2021/09/07 04:11:09;;;;;;;17.45;13.65;;;;;;;;;;2070030;28;20169;-55
2021/09/07 04:12:10;;;;;;;15.40;13.80;;;;;;;;;;2080777;28;20168;-56
2021/09/07 04:13:10;;;;;;;18.50;13.43;;;;;;;;;;2080735;28;20168;-55
2021/09/07 04:14:11;;;;;;;16.73;13.20;;;;;;;;;;2078287;28;20255;-55
2021/09/07 04:15:11;;;;;;;18.35;13.20;;;;;;;;;;2079599;28;20180;-57
2021/09/07 04:16:12;;;;;;;17.20;13.48;;;;;;;;;;2080552;28;20199;-56
2021/09/07 04:17:13;;;;;;;15.82;12.70;;;;;;;;;;2073987;28;20704;-55
2021/09/07 04:18:13;;;;;;;18.27;13.60;;;;;;;;;;2075939;28;20169;-56
2021/09/07 04:19:14;;;;;;;17.65;12.85;;;;;;;;;;2073921;28;20657;-58
2021/09/07 04:20:15;;;;;;;17.23;13.80;;;;;;;;;;2070312;28;20192;-58
2021/09/07 04:21:16;;;;;;;17.08;14.02;;;;;;;;;;2071129;28;20176;-60
2021/09/07 04:22:17;;;;;;;15.88;13.57;;;;;;;;;;2063449;28;20546;-59
2021/09/07 04:23:17;;;;;;;16.52;13.85;;;;;;;;;;2073239;28;20295;-57
2021/09/07 04:24:17;;;;;;;18.27;15.07;;;;;;;;;;2080515;28;20226;-56
2021/09/07 04:25:18;;;;;;;15.82;13.43;;;;;;;;;;2082123;28;20188;-59
2021/09/07 04:26:18;;;;;;;15.25;12.75;;;;;;;;;;2072890;28;20230;-59
2021/09/07 04:27:18;;;;;;;14.68;13.18;;;;;;;;;;2073289;28;20235;-58
2021/09/07 04:28:18;;;;;;;15.70;13.32;;;;;;;;;;2081554;28;20207;-58
2021/09/07 04:29:19;;;;;;;16.08;13.20;;;;;;;;;;2072832;28;20238;-58
2021/09/07 04:30:20;;;;;;;14.93;13.43;;;;;;;;;;2071142;28;20280;-58
2021/09/07 04:31:21;;;;;;;15.75;12.88;;;;;;;;;;2079545;28;20184;-58
2021/09/07 04:32:21;;;;;;;15.35;13.20;;;;;;;;;;2080853;28;20168;-57
2021/09/07 04:33:21;;;;;;;13.60;11.88;;;;;;;;;;2078195;28;20204;-56
2021/09/07 04:34:21;;;;;;;15.50;12.43;;;;;;;;;;2081516;28;20256;-60
2021/09/07 04:35:22;;;;;;;16.88;12.38;;;;;;;;;;2081680;28;20263;-58
2021/09/07 04:36:22;;;;;;;20.73;13.95;;;;;;;;;;2081796;28;20207;-59
2021/09/07 04:37:22;;;;;;;17.52;14.30;;;;;;;;;;2082648;28;20172;-60
2021/09/07 04:38:22;;;;;;;18.20;12.85;;;;;;;;;;2081282;28;20181;-59
2021/09/07 04:39:23;;;;;;;16.73;14.35;;;;;;;;;;2087415;28;20175;-59
2021/09/07 04:40:23;;;;;;;17.67;13.68;;;;;;;;;;2087600;28;20211;-59
2021/09/07 04:41:23;;;;;;;16.25;13.60;;;;;;;;;;2079051;28;20180;-59
2021/09/07 04:42:25;;;;;;;15.32;13.48;;;;;;;;;;2078114;28;20166;-58
2021/09/07 04:43:25;;;;;;;14.90;13.38;;;;;;;;;;2082253;28;20189;-57
2021/09/07 04:44:28;;;;;;;16.17;13.80;;;;;;;;;;2082202;28;20176;-58
2021/09/07 04:45:28;;;;;;;17.63;13.40;;;;;;;;;;2082345;28;20259;-56
2021/09/07 04:46:30;;;;;;;14.55;12.73;;;;;;;;;;2082801;28;20172;-57
2021/09/07 04:47:30;;;;;;;16.05;14.35;;;;;;;;;;2082643;28;20180;-56
2021/09/07 04:48:31;;;;;;;16.20;14.13;;;;;;;;;;2081983;28;20242;-57
2021/09/07 04:49:31;;;;;;;18.25;14.07;;;;;;;;;;2081634;28;20707;-57
2021/09/07 04:50:32;;;;;;;16.67;13.00;;;;;;;;;;2081793;28;20817;-59
2021/09/07 04:51:32;;;;;;;17.73;13.43;;;;;;;;;;2079536;28;20174;-59
2021/09/07 04:52:32;;;;;;;15.02;13.43;;;;;;;;;;2081892;28;20174;-59
2021/09/07 04:53:33;;;;;;;17.45;13.90;;;;;;;;;;2071863;28;20888;-59
2021/09/07 04:54:33;;;;;;;15.55;13.40;;;;;;;;;;2070686;28;20177;-59
2021/09/07 04:55:33;;;;;;;14.38;12.57;;;;;;;;;;2081973;28;20179;-58
2021/09/07 04:56:34;;;;;;;16.33;13.82;;;;;;;;;;2082172;28;20283;-58
2021/09/07 04:57:34;;;;;;;16.35;13.75;;;;;;;;;;2080643;28;20156;-55
2021/09/07 04:58:34;;;;;;;15.75;13.57;;;;;;;;;;2081588;28;20179;-58
2021/09/07 04:59:34;;;;;;;15.98;13.32;;;;;;;;;;2071306;28;20180;-54
2021/09/07 05:00:35;;;;;;;15.05;13.30;;;;;;;;;;2069709;28;20185;-55
2021/09/07 05:01:35;;;;;;;18.33;13.65;;;;;;;;;;2082589;28;20188;-58
2021/09/07 05:02:36;;;;;;;16.20;13.63;;;;;;;;;;2077924;28;20265;-58
2021/09/07 05:03:36;;;;;;;16.67;13.27;;;;;;;;;;2073452;28;20207;-58
2021/09/07 05:04:36;;;;;;;14.75;12.65;;;;;;;;;;2077761;28;20227;-61
2021/09/07 05:05:37;;;;;;;14.65;12.73;;;;;;;;;;2081639;28;20230;-55
2021/09/07 05:06:37;;;;;;;15.57;13.45;;;;;;;;;;2068792;28;20244;-57
2021/09/07 05:07:37;;;;;;;15.18;13.57;;;;;;;;;;2064930;28;20205;-59
2021/09/07 05:08:37;;;;;;;17.15;14.32;;;;;;;;;;2066256;28;20782;-58
2021/09/07 05:09:39;;;;;;;14.55;12.93;;;;;;;;;;2072865;28;20184;-58
2021/09/07 05:10:40;;;;;;;18.33;12.65;;;;;;;;;;2080040;28;20254;-54
2021/09/07 05:11:40;;;;;;;17.55;13.35;;;;;;;;;;2081777;28;20524;-56
2021/09/07 05:12:40;;;;;;;14.90;12.40;;;;;;;;;;2081915;28;20191;-59
2021/09/07 05:13:40;;;;;;;14.98;12.68;;;;;;;;;;2081669;28;20170;-55
2021/09/07 05:14:41;;;;;;;15.68;13.90;;;;;;;;;;2081732;28;20172;-53
2021/09/07 05:15:41;;;;;;;15.90;13.23;;;;;;;;;;2075549;28;20200;-55
2021/09/07 05:16:42;;;;;;;14.27;12.45;;;;;;;;;;2070895;28;20170;-56
2021/09/07 05:17:44;;;;;;;14.52;12.45;;;;;;;;;;2066769;28;20793;-57
2021/09/07 05:18:44;;;;;;;13.82;12.20;;;;;;;;;;2079386;28;20199;-56
2021/09/07 05:19:44;;;;;;;18.05;13.57;;;;;;;;;;2077290;28;20244;-55
2021/09/07 05:20:45;;;;;;;16.55;13.43;;;;;;;;;;2082250;28;20564;-59
2021/09/07 05:21:45;;;;;;;17.17;13.70;;;;;;;;;;2081550;28;20322;-55
2021/09/07 05:22:46;;;;;;;15.95;11.85;;;;;;;;;;2081180;28;20203;-62
2021/09/07 05:23:46;;;;;;;15.93;12.25;;;;;;;;;;2082240;28;20185;-56
2021/09/07 05:24:47;;;;;;;14.18;12.38;;;;;;;;;;2081462;28;20594;-54
2021/09/07 05:25:47;;;;;;;17.27;12.20;;;;;;;;;;2072578;28;21125;-54
2021/09/07 05:26:47;;;;;;;14.93;12.10;;;;;;;;;;2072625;28;20520;-52
2021/09/07 05:27:48;;;;;;;15.93;12.63;;;;;;;;;;2080549;28;20198;-55
2021/09/07 05:28:49;;;;;;;12.40;10.98;;;;;;;;;;2080753;28;20719;-57
2021/09/07 05:29:49;;;;;;;18.10;12.20;;;;;;;;;;2078754;28;20177;-56
2021/09/07 05:30:50;;;;;;;20.58;15.65;;;;;;;;;;2080784;28;20171;-57
2021/09/07 05:31:52;;;;;;;15.50;13.15;;;;;;;;;;2081076;28;20746;-60
2021/09/07 05:32:52;;;;;;;14.20;11.65;;;;;;;;;;2079193;28;20195;-58
2021/09/07 05:33:52;;;;;;;14.27;12.68;;;;;;;;;;2071858;28;20165;-61
2021/09/07 05:34:52;;;;;;;13.13;11.20;;;;;;;;;;2072623;28;20265;-61
2021/09/07 05:35:53;;;;;;;17.08;11.65;;;;;;;;;;2081492;28;20200;-60
2021/09/07 05:36:53;;;;;;;13.35;11.95;;;;;;;;;;2081820;28;20219;-58
2021/09/07 05:37:54;;;;;;;13.55;11.15;;;;;;;;;;2079237;28;20541;-60
2021/09/07 05:38:54;;;;;;;18.25;13.23;;;;;;;;;;2082155;28;20176;-55
2021/09/07 05:39:54;;;;;;;14.93;12.35;;;;;;;;;;2081875;28;20215;-60
2021/09/07 05:40:54;;;;;;;14.35;12.82;;;;;;;;;;2080579;28;20184;-61
2021/09/07 05:41:55;;;;;;;12.93;11.20;;;;;;;;;;2082454;28;20178;-58
2021/09/07 05:42:55;;;;;;;14.40;12.40;;;;;;;;;;2081788;28;20188;-59
2021/09/07 05:43:55;;;;;;;12.43;11.10;;;;;;;;;;2081999;28;20180;-54
2021/09/07 05:44:55;;;;;;;13.65;11.68;;;;;;;;;;2082191;28;20192;-60
2021/09/07 05:45:56;;;;;;;12.63;10.27;;;;;;;;;;2082517;28;20164;-60
2021/09/07 05:46:58;;;;;;;15.30;11.75;;;;;;;;;;2082082;28;20209;-62
2021/09/07 05:47:58;;;;;;;12.32;11.00;;;;;;;;;;2079978;28;20663;-59
2021/09/07 05:48:58;;;;;;;14.13;11.43;;;;;;;;;;2081430;28;20212;-56
2021/09/07 05:49:58;;;;;;;13.77;12.15;;;;;;;;;;2076193;28;20286;-58
2021/09/07 05:50:59;;;;;;;14.68;11.30;;;;;;;;;;2084599;28;20263;-57
2021/09/07 05:51:59;;;;;;;13.30;11.88;;;;;;;;;;2077981;28;20241;-56
2021/09/07 05:53:00;;;;;;;14.13;10.80;;;;;;;;;;2077263;28;20711;-55
2021/09/07 05:54:00;;;;;;;13.40;11.25;;;;;;;;;;2078826;28;20172;-53
2021/09/07 05:55:01;;;;;;;15.07;12.13;;;;;;;;;;2081927;28;20156;-56